Time;durP1;ratioP1;P1;durP2;ratioP2;P2;SDS_P1;SDS_P2;PMS_P1;PMS_P2;Temp;Humidity;BMP_temperature;BMP_pressure;BME280_temperature;BME280_humidity;BME280_pressure;Samples;Min_cycle;Max_cycle;Signal;HPM_P1;HPM_P2
2020/12/12 00:01:53;;;;;;;21.60;9.05;;;;;;;-0.98;75.30;100539.73;1700116;83;21309;-63
2020/12/12 00:04:21;;;;;;;23.40;10.30;;;;;;;-0.96;75.29;100537.78;1700229;83;21068;-62
2020/12/12 00:06:48;;;;;;;22.85;9.45;;;;;;;-0.92;75.32;100539.74;1700109;83;21023;-61
2020/12/12 00:09:16;;;;;;;20.92;7.85;;;;;;;-0.89;75.22;100540.36;1700230;84;21090;-62
2020/12/12 00:11:44;;;;;;;21.20;9.58;;;;;;;-0.90;75.15;100531.06;1700087;84;21766;-62
2020/12/12 00:14:12;;;;;;;23.70;8.85;;;;;;;-0.93;75.09;100528.63;1700051;84;21058;-60
2020/12/12 00:16:39;;;;;;;23.70;10.70;;;;;;;-0.92;75.19;100535.71;1700138;83;21357;-63
2020/12/12 00:19:07;;;;;;;21.65;8.70;;;;;;;-0.88;75.24;100535.34;1700195;84;21295;-63
2020/12/12 00:21:34;;;;;;;22.10;9.73;;;;;;;-0.85;75.12;100526.17;1700103;83;21065;-62
2020/12/12 00:24:02;;;;;;;17.70;7.60;;;;;;;-0.85;75.11;100531.06;1700101;84;21771;-61
2020/12/12 00:26:29;;;;;;;20.60;8.85;;;;;;;-0.86;75.01;100529.36;1699032;84;21282;-62
2020/12/12 00:28:57;;;;;;;23.92;10.08;;;;;;;-0.87;75.00;100520.06;1698634;84;21231;-62
2020/12/12 00:31:24;;;;;;;20.97;8.50;;;;;;;-0.88;75.08;100521.05;1699473;83;21714;-61
2020/12/12 00:33:52;;;;;;;21.75;9.58;;;;;;;-0.88;75.21;100526.42;1700507;83;21830;-61
2020/12/12 00:36:19;;;;;;;18.85;8.93;;;;;;;-0.87;75.22;100514.20;1710454;84;21253;-62
2020/12/12 00:38:47;;;;;;;21.23;9.10;;;;;;;-0.84;75.24;100517.12;1710442;82;21077;-63
2020/12/12 00:41:14;;;;;;;23.73;9.13;;;;;;;-0.81;75.24;100512.36;1710274;84;21817;-63
2020/12/12 00:43:42;;;;;;;26.20;10.13;;;;;;;-0.79;75.20;100510.41;1710434;82;21316;-61
2020/12/12 00:46:09;;;;;;;21.60;9.73;;;;;;;-0.78;75.17;100501.84;1710501;82;21293;-64
2020/12/12 00:48:36;;;;;;;20.60;8.38;;;;;;;-0.78;75.25;100504.05;1710549;84;21263;-62
2020/12/12 00:51:04;;;;;;;25.95;10.72;;;;;;;-0.80;75.15;100503.80;1710420;82;21086;-63
2020/12/12 00:53:31;;;;;;;19.57;8.53;;;;;;;-0.82;75.22;100501.73;1710637;82;21795;-61
2020/12/12 00:55:59;;;;;;;25.88;10.68;;;;;;;-0.82;75.28;100505.77;1710384;84;21225;-62
2020/12/12 00:58:28;;;;;;;23.10;9.45;;;;;;;-0.80;75.31;100499.77;1710432;82;21814;-62
2020/12/12 01:00:55;;;;;;;20.88;10.20;;;;;;;-0.80;75.39;100501.97;1710488;82;21046;-62
2020/12/12 01:03:24;;;;;;;28.05;10.38;;;;;;;-0.77;75.41;100512.97;1710423;84;21749;-61
2020/12/12 01:05:51;;;;;;;25.80;10.98;;;;;;;-0.76;75.45;100508.81;1710369;82;21054;-61
2020/12/12 01:08:19;;;;;;;25.20;10.20;;;;;;;-0.74;75.38;100501.48;1710470;84;21368;-61
2020/12/12 01:10:46;;;;;;;23.77;9.45;;;;;;;-0.73;75.40;100503.19;1710615;82;21050;-61
2020/12/12 01:13:14;;;;;;;23.85;9.50;;;;;;;-0.70;75.33;100503.44;1710608;84;21241;-62
2020/12/12 01:15:42;;;;;;;24.85;10.05;;;;;;;-0.70;75.28;100504.28;1710477;82;21952;-61
2020/12/12 01:18:09;;;;;;;23.02;9.78;;;;;;;-0.68;75.25;100498.78;1710477;82;21419;-62
2020/12/12 01:20:38;;;;;;;27.75;10.58;;;;;;;-0.67;75.25;100499.16;1710628;84;21344;-63
2020/12/12 01:23:06;;;;;;;21.40;9.40;;;;;;;-0.67;75.17;100499.16;1710358;83;21614;-61
2020/12/12 01:25:37;;;;;;;22.60;9.35;;;;;;;-0.70;75.23;100498.91;1707122;82;21338;-61
2020/12/12 01:28:02;;;;;;;26.42;10.20;;;;;;;-0.72;75.27;100496.83;1699672;84;21772;-63
2020/12/12 01:30:30;;;;;;;25.10;10.05;;;;;;;-0.71;75.37;100495.84;1701643;83;21818;-62
2020/12/12 01:32:57;;;;;;;20.45;9.48;;;;;;;-0.68;75.34;100490.22;1710467;82;21255;-63
2020/12/12 01:35:25;;;;;;;25.57;11.25;;;;;;;-0.66;75.31;100491.44;1704935;82;21070;-60
2020/12/12 01:37:53;;;;;;;20.85;8.90;;;;;;;-0.61;75.38;100492.45;1700022;84;21792;-62
2020/12/12 01:40:20;;;;;;;22.20;9.65;;;;;;;-0.59;75.20;100493.18;1700139;83;21054;-62
2020/12/12 01:42:48;;;;;;;23.52;10.03;;;;;;;-0.60;75.12;100488.29;1700154;84;21213;-61
2020/12/12 01:45:15;;;;;;;24.10;10.08;;;;;;;-0.61;75.02;100501.37;1700106;83;21102;-62
2020/12/12 01:47:43;;;;;;;22.48;9.00;;;;;;;-0.62;75.09;100493.43;1700155;83;21071;-63
2020/12/12 01:50:10;;;;;;;24.95;9.40;;;;;;;-0.62;75.06;100500.16;1700028;83;21214;-62
2020/12/12 01:52:37;;;;;;;21.35;9.05;;;;;;;-0.62;75.02;100486.22;1700013;84;21296;-61
2020/12/12 01:55:05;;;;;;;25.02;9.80;;;;;;;-0.61;74.98;100487.06;1700034;83;21233;-62
2020/12/12 01:57:32;;;;;;;23.60;9.63;;;;;;;-0.63;74.94;100488.54;1700025;84;21390;-62
2020/12/12 02:00:00;;;;;;;26.65;9.55;;;;;;;-0.66;74.98;100479.34;1700052;83;21078;-61
2020/12/12 02:02:27;;;;;;;23.42;10.18;;;;;;;-0.67;74.96;100485.70;1700146;83;21345;-63
2020/12/12 02:04:55;;;;;;;24.32;10.45;;;;;;;-0.68;75.02;100486.67;1700029;84;21863;-63
2020/12/12 02:07:24;;;;;;;22.67;10.48;;;;;;;-0.67;75.05;100485.70;1700042;84;21026;-62
2020/12/12 02:09:51;;;;;;;22.00;8.30;;;;;;;-0.68;75.04;100481.30;1700019;83;21309;-62
2020/12/12 02:12:19;;;;;;;22.25;10.98;;;;;;;-0.67;75.00;100477.63;1700073;83;21062;-62
2020/12/12 02:14:46;;;;;;;25.57;10.23;;;;;;;-0.68;74.95;100489.37;1700070;84;21759;-62
2020/12/12 02:17:13;;;;;;;20.20;9.20;;;;;;;-0.67;75.00;100487.05;1700033;83;22005;-61
2020/12/12 02:19:41;;;;;;;20.40;8.88;;;;;;;-0.64;74.98;100492.20;1700034;83;21237;-62
2020/12/12 02:22:08;;;;;;;21.85;10.55;;;;;;;-0.64;74.88;100476.06;1701193;83;21088;-62
2020/12/12 02:24:36;;;;;;;22.42;10.38;;;;;;;-0.68;74.75;100482.64;1717138;82;21086;-61
2020/12/12 02:27:05;;;;;;;21.25;9.15;;;;;;;-0.71;74.82;100483.74;1684320;83;21118;-64
2020/12/12 02:29:48;;;;;;;22.67;8.58;;;;;;;-0.68;74.91;100481.30;1682885;84;22244;-62
2020/12/12 02:32:14;;;;;;;22.27;9.50;;;;;;;-0.68;74.84;100478.61;1698098;84;21278;-62
2020/12/12 02:34:43;;;;;;;23.05;9.93;;;;;;;-0.68;74.82;100473.22;1701047;83;21312;-62
2020/12/12 02:37:11;;;;;;;20.50;9.08;;;;;;;-0.68;74.93;100471.39;1710588;82;21038;-62
2020/12/12 02:39:38;;;;;;;23.00;10.80;;;;;;;-0.65;74.88;100475.20;1710443;84;21760;-62
2020/12/12 02:42:06;;;;;;;21.57;8.78;;;;;;;-0.64;74.88;100480.10;1710318;82;21171;-61
2020/12/12 02:44:33;;;;;;;22.32;9.08;;;;;;;-0.63;74.76;100472.89;1710450;83;21487;-61
2020/12/12 02:47:00;;;;;;;20.15;7.80;;;;;;;-0.63;74.69;100482.30;1710368;82;21089;-60
2020/12/12 02:49:28;;;;;;;16.60;7.65;;;;;;;-0.68;74.62;100483.98;1710439;83;21345;-62
2020/12/12 02:51:55;;;;;;;20.25;8.35;;;;;;;-0.71;74.58;100470.78;1710491;82;21085;-63
2020/12/12 02:54:22;;;;;;;21.35;8.18;;;;;;;-0.76;74.56;100469.81;1710552;84;21755;-63
2020/12/12 02:56:50;;;;;;;20.90;9.43;;;;;;;-0.79;74.57;100470.55;1710422;82;21717;-60
2020/12/12 02:59:17;;;;;;;27.85;9.45;;;;;;;-0.84;74.62;100472.75;1710525;82;21383;-63
2020/12/12 03:01:44;;;;;;;22.10;9.63;;;;;;;-0.86;74.64;100470.19;1710512;82;21360;-61
2020/12/12 03:04:12;;;;;;;21.90;9.23;;;;;;;-0.85;74.58;100462.97;1710496;82;21342;-62
2020/12/12 03:06:44;;;;;;;25.77;10.13;;;;;;;-0.87;74.68;100474.34;1710621;82;21034;-62
2020/12/12 03:09:10;;;;;;;22.50;9.63;;;;;;;-0.87;74.77;100475.20;1710480;83;21308;-62
2020/12/12 03:11:37;;;;;;;19.87;8.15;;;;;;;-0.86;74.78;100462.61;1710630;84;21114;-63
2020/12/12 03:14:05;;;;;;;20.95;9.83;;;;;;;-0.85;74.63;100476.42;1710509;83;21334;-60
2020/12/12 03:16:32;;;;;;;23.30;8.48;;;;;;;-0.90;74.56;100476.79;1710479;82;21435;-62
2020/12/12 03:19:00;;;;;;;19.85;8.88;;;;;;;-0.89;74.64;100480.33;1710482;82;21309;-62
2020/12/12 03:21:27;;;;;;;20.45;8.05;;;;;;;-0.86;74.64;100478.74;1710614;84;21329;-61
2020/12/12 03:23:55;;;;;;;25.20;9.58;;;;;;;-0.89;74.52;100484.37;1710553;82;21189;-61
2020/12/12 03:26:22;;;;;;;22.62;9.75;;;;;;;-0.91;74.49;100480.45;1709516;84;21732;-61
2020/12/12 03:28:50;;;;;;;21.95;8.88;;;;;;;-0.89;74.54;100470.92;1709148;83;21269;-62
2020/12/12 03:31:18;;;;;;;22.30;9.28;;;;;;;-0.88;74.47;100482.05;1709682;83;21070;-62
2020/12/12 03:33:45;;;;;;;22.77;8.53;;;;;;;-0.90;74.31;100488.03;1710480;82;21811;-62
2020/12/12 03:36:12;;;;;;;23.98;9.18;;;;;;;-0.93;74.27;100481.56;1704666;83;21820;-61
2020/12/12 03:38:40;;;;;;;21.87;9.13;;;;;;;-0.94;74.32;100479.84;1700185;84;21298;-62
2020/12/12 03:41:07;;;;;;;19.85;8.95;;;;;;;-0.94;74.37;100481.19;1700065;84;21038;-61
2020/12/12 03:43:35;;;;;;;23.65;9.85;;;;;;;-0.96;74.22;100487.55;1700188;84;21894;-63
2020/12/12 03:46:02;;;;;;;27.07;10.13;;;;;;;-0.96;74.25;100490.73;1700100;84;21411;-62
2020/12/12 03:48:30;;;;;;;22.37;9.35;;;;;;;-0.97;74.34;100489.02;1700389;83;21427;-61
2020/12/12 03:50:57;;;;;;;22.27;8.70;;;;;;;-0.96;74.34;100483.52;1700110;84;21339;-61
2020/12/12 03:53:24;;;;;;;20.92;8.48;;;;;;;-0.95;74.29;100484.37;1700084;83;21333;-62
2020/12/12 03:55:52;;;;;;;21.10;8.43;;;;;;;-0.94;74.19;100483.88;1700257;83;21795;-62
2020/12/12 03:58:19;;;;;;;25.12;9.18;;;;;;;-0.97;74.07;100485.84;1700075;83;21379;-62
2020/12/12 04:00:47;;;;;;;19.80;8.18;;;;;;;-1.01;74.06;100482.16;1700116;83;21827;-61
2020/12/12 04:03:14;;;;;;;19.52;7.85;;;;;;;-1.01;74.12;100480.33;1700156;84;21186;-60
2020/12/12 04:05:44;;;;;;;27.82;9.90;;;;;;;-1.03;74.04;100480.09;1700189;84;21059;-62
2020/12/12 04:08:12;;;;;;;22.60;8.78;;;;;;;-1.07;74.00;100485.34;1700395;83;21075;-62
2020/12/12 04:10:41;;;;;;;22.55;9.80;;;;;;;-1.07;74.07;100485.34;1698467;83;21079;-62
2020/12/12 04:13:08;;;;;;;19.07;7.95;;;;;;;-1.08;74.08;100484.48;1699980;84;21858;-61
2020/12/12 04:15:36;;;;;;;20.50;8.73;;;;;;;-1.08;74.08;100476.91;1700118;84;21269;-62
2020/12/12 04:18:04;;;;;;;18.30;7.83;;;;;;;-1.10;74.05;100475.69;1699928;84;21302;-62
2020/12/12 04:20:32;;;;;;;21.87;9.45;;;;;;;-1.10;73.98;100478.86;1700042;83;21829;-60
2020/12/12 04:22:59;;;;;;;20.77;8.08;;;;;;;-1.14;73.99;100478.25;1700057;83;21370;-62
2020/12/12 04:25:26;;;;;;;23.55;8.15;;;;;;;-1.16;74.07;100473.48;1699640;84;21032;-63
2020/12/12 04:27:54;;;;;;;24.37;9.05;;;;;;;-1.19;74.08;100472.38;1698529;84;21051;-62
2020/12/12 04:30:21;;;;;;;22.98;9.63;;;;;;;-1.20;74.14;100468.47;1698714;84;21954;-61
2020/12/12 04:32:48;;;;;;;23.73;8.68;;;;;;;-1.22;74.21;100467.25;1700077;84;21068;-63
2020/12/12 04:35:16;;;;;;;23.18;9.20;;;;;;;-1.21;74.19;100470.30;1700335;83;21318;-62
2020/12/12 04:37:43;;;;;;;18.60;7.70;;;;;;;-1.21;74.20;100468.11;1710467;84;21814;-62
2020/12/12 04:40:11;;;;;;;20.37;8.95;;;;;;;-1.21;74.11;100467.61;1710389;82;21961;-63
2020/12/12 04:42:42;;;;;;;19.20;7.75;;;;;;;-1.24;73.98;100478.61;1710478;82;21077;-62
2020/12/12 04:45:10;;;;;;;25.17;9.45;;;;;;;-1.30;73.93;100471.88;1710641;84;21156;-61
2020/12/12 04:47:40;;;;;;;21.30;8.78;;;;;;;-1.40;74.01;100470.00;1710578;84;21294;-62
2020/12/12 04:50:08;;;;;;;20.95;8.10;;;;;;;-1.42;74.19;100478.67;1729369;82;21065;-62
2020/12/12 04:52:39;;;;;;;20.02;8.35;;;;;;;-1.39;74.21;100477.09;1710516;84;21427;-62
2020/12/12 04:55:07;;;;;;;21.02;7.42;;;;;;;-1.39;74.15;100475.26;1710350;82;21566;-63
2020/12/12 04:57:38;;;;;;;17.07;7.25;;;;;;;-1.36;73.96;100468.78;1710467;83;21971;-61
2020/12/12 05:00:11;;;;;;;20.25;9.18;;;;;;;-1.40;73.39;100464.63;1710609;84;21747;-62
2020/12/12 05:02:39;;;;;;;18.00;7.55;;;;;;;-1.45;73.20;100468.16;1710490;83;21332;-61
2020/12/12 05:05:07;;;;;;;21.00;8.35;;;;;;;-1.48;73.15;100471.94;1710510;82;21168;-62
2020/12/12 05:07:34;;;;;;;19.75;8.83;;;;;;;-1.49;73.13;100474.27;1710490;82;21272;-63
2020/12/12 05:10:03;;;;;;;21.90;7.72;;;;;;;-1.48;73.12;100461.69;1710323;82;21785;-62
2020/12/12 05:12:34;;;;;;;16.93;8.03;;;;;;;-1.48;73.05;100461.20;1710494;84;21058;-62
2020/12/12 05:15:01;;;;;;;20.02;7.37;;;;;;;-1.49;72.92;100472.06;1710401;84;21248;-61
2020/12/12 05:17:29;;;;;;;22.35;8.75;;;;;;;-1.52;72.76;100463.75;1710547;84;21323;-62
2020/12/12 05:19:58;;;;;;;17.92;7.12;;;;;;;-1.52;72.71;100457.52;1710645;82;21779;-63
2020/12/12 05:22:25;;;;;;;16.32;7.05;;;;;;;-1.50;72.67;100462.29;1710611;84;21416;-61
2020/12/12 05:24:54;;;;;;;18.90;8.23;;;;;;;-1.52;72.60;100451.66;1709870;83;21160;-61
2020/12/12 05:27:22;;;;;;;18.73;7.37;;;;;;;-1.51;72.56;100459.23;1699852;83;21837;-62
2020/12/12 05:29:49;;;;;;;18.48;7.45;;;;;;;-1.48;72.36;100465.72;1671920;84;21271;-62
2020/12/12 05:32:17;;;;;;;17.35;7.12;;;;;;;-1.50;72.14;100467.17;1709402;82;21344;-60
2020/12/12 05:34:44;;;;;;;15.72;7.40;;;;;;;-1.58;71.70;100461.55;1710481;84;21068;-62
2020/12/12 05:37:13;;;;;;;18.55;7.50;;;;;;;-1.68;71.64;100467.26;1710263;81;21097;-61
2020/12/12 05:39:40;;;;;;;15.93;6.37;;;;;;;-1.73;71.67;100468.95;1682164;84;21767;-62
2020/12/12 05:42:08;;;;;;;16.10;7.53;;;;;;;-1.76;71.50;100462.48;1739195;82;21312;-62
2020/12/12 05:44:35;;;;;;;16.50;7.97;;;;;;;-1.75;71.56;100461.50;1742824;82;21031;-62
2020/12/12 05:47:02;;;;;;;17.57;7.40;;;;;;;-1.72;71.54;100469.32;1742725;81;21779;-63
2020/12/12 05:49:33;;;;;;;16.77;7.37;;;;;;;-1.69;71.46;100477.14;1715880;82;21319;-62
2020/12/12 05:52:01;;;;;;;19.02;7.78;;;;;;;-1.72;71.26;100476.04;1742934;81;21318;-62
2020/12/12 05:54:30;;;;;;;17.57;7.37;;;;;;;-1.79;71.21;100461.86;1715816;82;21079;-62
2020/12/12 05:56:59;;;;;;;16.15;7.92;;;;;;;-1.81;71.27;100471.86;1742866;81;21070;-63
2020/12/12 05:59:27;;;;;;;16.97;7.60;;;;;;;-1.82;71.28;100473.69;1742912;81;21118;-62
2020/12/12 06:01:55;;;;;;;21.00;8.85;;;;;;;-1.82;71.43;100466.12;1742740;81;21355;-62
2020/12/12 06:04:24;;;;;;;15.55;7.60;;;;;;;-1.82;71.33;100462.09;1742899;81;21881;-62
2020/12/12 06:06:53;;;;;;;18.57;8.33;;;;;;;-1.87;71.36;100455.73;1742876;82;21326;-61
2020/12/12 06:09:20;;;;;;;14.00;7.50;;;;;;;-1.86;71.47;100459.27;1692104;82;21071;-62
2020/12/12 06:11:47;;;;;;;18.70;7.45;;;;;;;-1.84;71.46;100461.35;1742939;81;21304;-61
2020/12/12 06:14:15;;;;;;;18.65;7.70;;;;;;;-1.84;71.32;100464.89;1742906;82;21575;-62
2020/12/12 06:16:42;;;;;;;16.93;8.18;;;;;;;-1.85;71.35;100465.01;1742974;81;21393;-62
2020/12/12 06:19:15;;;;;;;21.35;9.03;;;;;;;-1.86;71.44;100459.27;1742790;81;21828;-62
2020/12/12 06:21:44;;;;;;;21.05;9.05;;;;;;;-1.85;71.46;100464.52;1742862;81;21716;-63
2020/12/12 06:24:15;;;;;;;16.97;6.95;;;;;;;-1.81;71.54;100453.91;1742383;82;21088;-61
2020/12/12 06:27:08;;;;;;;20.62;8.65;;;;;;;-1.77;71.31;100458.56;1708266;82;21310;-63
2020/12/12 06:29:41;;;;;;;16.40;8.33;;;;;;;-1.81;71.33;100459.77;1699959;83;21821;-60
2020/12/12 06:32:17;;;;;;;17.02;7.60;;;;;;;-1.88;71.24;100467.44;1681063;84;21766;-61
2020/12/12 06:34:47;;;;;;;15.25;6.85;;;;;;;-1.92;71.39;100471.33;1710717;83;21339;-61
2020/12/12 06:37:41;;;;;;;14.65;8.10;;;;;;;-1.94;71.48;100461.20;1712271;83;21170;-61
2020/12/12 06:40:11;;;;;;;18.57;8.60;;;;;;;-1.92;71.52;100467.30;1713008;83;21832;-61
2020/12/12 06:42:40;;;;;;;18.37;8.45;;;;;;;-1.90;71.53;100458.65;1713870;83;21359;-62
2020/12/12 06:45:19;;;;;;;21.68;9.23;;;;;;;-1.88;71.48;100461.22;1713807;83;21331;-63
2020/12/12 06:47:51;;;;;;;18.87;8.38;;;;;;;-1.89;71.38;100453.65;1713833;83;21278;-61
2020/12/12 06:50:21;;;;;;;18.10;8.05;;;;;;;-1.91;71.41;100460.96;1713830;83;21068;-62
2020/12/12 06:52:49;;;;;;;22.82;9.35;;;;;;;-1.90;71.40;100461.33;1713947;83;21242;-61
2020/12/12 06:55:19;;;;;;;18.73;8.93;;;;;;;-1.93;71.38;100460.22;1713782;83;21092;-63
2020/12/12 06:57:48;;;;;;;26.07;10.85;;;;;;;-1.98;71.40;100457.00;1713725;83;21433;-61
2020/12/12 07:00:25;;;;;;;19.82;8.75;;;;;;;-2.00;71.47;100454.92;1713650;83;21291;-62
2020/12/12 07:03:07;;;;;;;23.38;9.73;;;;;;;-1.98;71.53;100451.14;1713828;83;21218;-61
2020/12/12 07:05:37;;;;;;;21.82;9.68;;;;;;;-1.96;71.68;100447.00;1713800;83;21320;-62
2020/12/12 07:08:08;;;;;;;24.47;9.95;;;;;;;-1.93;71.52;100454.85;1713849;83;21075;-63
2020/12/12 07:10:39;;;;;;;18.52;7.70;;;;;;;-1.92;71.50;100449.86;1714091;83;21378;-62
2020/12/12 07:13:08;;;;;;;17.17;8.13;;;;;;;-1.89;71.55;100444.25;1713830;83;21067;-62
2020/12/12 07:15:37;;;;;;;21.33;8.70;;;;;;;-1.88;71.52;100438.39;1713957;83;21209;-65
2020/12/12 07:18:11;;;;;;;36.05;15.20;;;;;;;-1.89;71.50;100429.48;1713760;83;22073;-62
2020/12/12 07:20:45;;;;;;;281.93;96.40;;;;;;;-1.89;71.61;100436.19;1713615;83;21322;-61
2020/12/12 07:23:13;;;;;;;30.23;14.43;;;;;;;-1.83;71.64;100442.92;1713560;83;21343;-61
2020/12/12 07:25:40;;;;;;;43.80;17.85;;;;;;;-1.81;71.68;100438.29;1713761;83;21299;-62
2020/12/12 07:28:08;;;;;;;24.18;10.48;;;;;;;-1.79;71.71;100430.48;1713793;83;21064;-63
2020/12/12 07:30:35;;;;;;;34.38;13.62;;;;;;;-1.75;71.71;100431.11;1708035;83;21859;-61
2020/12/12 07:33:02;;;;;;;53.63;22.85;;;;;;;-1.73;71.59;100417.92;1685145;85;21744;-62
2020/12/12 07:35:30;;;;;;;31.52;13.90;;;;;;;-1.74;71.60;100416.21;1685134;85;21064;-61
2020/12/12 07:38:07;;;;;;;29.00;12.60;;;;;;;-1.73;71.63;100420.61;1671227;83;21462;-62
2020/12/12 07:40:38;;;;;;;20.10;9.13;;;;;;;-1.68;71.70;100423.80;1666158;86;21875;-63
2020/12/12 07:43:09;;;;;;;26.00;9.80;;;;;;;-1.62;71.67;100422.46;1665820;86;21282;-63
2020/12/12 07:48:11;;;;;;;17.48;8.63;;;;;;;-1.61;71.46;100421.48;1665813;84;21086;-62
2020/12/12 07:50:38;;;;;;;20.43;9.08;;;;;;;-1.57;71.38;100424.78;1665847;84;21631;-61
2020/12/12 07:53:09;;;;;;;24.90;9.78;;;;;;;-1.56;71.45;100419.30;1665869;85;21051;-60
2020/12/12 07:55:44;;;;;;;18.60;9.38;;;;;;;-1.54;71.49;100423.20;1666015;84;21794;-62
2020/12/12 07:58:16;;;;;;;27.13;10.58;;;;;;;-1.52;71.50;100430.66;1665963;86;21433;-62
2020/12/12 08:00:43;;;;;;;24.72;10.98;;;;;;;-1.50;71.51;100417.95;1665936;84;21095;-62
2020/12/12 08:03:11;;;;;;;19.77;9.08;;;;;;;-1.47;71.55;100415.03;1665928;84;21354;-62
2020/12/12 08:05:38;;;;;;;19.10;8.15;;;;;;;-1.43;71.43;100416.50;1666053;86;21297;-61
2020/12/12 08:08:09;;;;;;;20.30;8.58;;;;;;;-1.43;71.38;100413.33;1665934;85;21037;-63
2020/12/12 08:10:38;;;;;;;19.90;8.58;;;;;;;-1.39;71.36;100417.97;1665677;84;21118;-64
2020/12/12 08:13:05;;;;;;;24.27;9.10;;;;;;;-1.43;71.31;100416.50;1665760;84;21269;-63
2020/12/12 08:15:40;;;;;;;21.40;8.85;;;;;;;-1.42;71.45;100416.87;1665952;84;21233;-62
2020/12/12 08:18:13;;;;;;;29.90;10.40;;;;;;;-1.40;71.51;100414.42;1666832;84;21350;-62
2020/12/12 08:20:42;;;;;;;19.27;9.20;;;;;;;-1.39;71.57;100420.66;1666010;85;21031;-61
2020/12/12 08:23:14;;;;;;;23.38;10.35;;;;;;;-1.34;71.73;100420.66;1665595;84;21092;-62
2020/12/12 08:25:41;;;;;;;24.77;8.78;;;;;;;-1.28;71.71;100420.70;1683638;83;21083;-62
2020/12/12 08:28:09;;;;;;;21.45;9.43;;;;;;;-1.24;71.52;100411.41;1712255;83;21349;-62
2020/12/12 08:30:36;;;;;;;27.42;10.43;;;;;;;-1.22;71.53;100413.48;1712394;83;21090;-62
2020/12/12 08:33:11;;;;;;;28.67;11.53;;;;;;;-1.26;71.29;100412.02;1713677;82;21799;-61
2020/12/12 08:35:40;;;;;;;25.15;10.45;;;;;;;-1.27;71.46;100410.31;1710802;82;21058;-62
2020/12/12 08:38:12;;;;;;;22.07;8.95;;;;;;;-1.25;71.50;100409.70;1690568;83;21446;-62
2020/12/12 08:40:48;;;;;;;30.97;11.60;;;;;;;-1.22;71.56;100416.66;1676620;84;21082;-64
2020/12/12 08:43:16;;;;;;;25.82;9.70;;;;;;;-1.21;71.57;100407.13;1676523;84;21339;-62
2020/12/12 08:45:56;;;;;;;25.23;10.53;;;;;;;-1.15;71.53;100412.51;1676442;84;21054;-61
2020/12/12 08:48:34;;;;;;;21.87;8.93;;;;;;;-1.12;71.32;100408.23;1676508;84;21312;-62
2020/12/12 08:51:03;;;;;;;22.10;10.35;;;;;;;-1.13;71.29;100414.09;1676433;84;21401;-62
2020/12/12 08:53:41;;;;;;;23.15;10.23;;;;;;;-1.13;71.32;100399.80;1676416;85;21762;-62
2020/12/12 08:56:16;;;;;;;22.17;9.33;;;;;;;-1.11;71.11;100400.53;1676455;84;21178;-61
2020/12/12 08:58:51;;;;;;;21.50;10.28;;;;;;;-1.11;71.08;100394.66;1653080;85;21121;-63
2020/12/12 09:01:38;;;;;;;27.32;11.38;;;;;;;-1.09;71.06;100398.58;1676521;84;21434;-62
2020/12/12 09:04:14;;;;;;;22.10;8.08;;;;;;;-1.07;71.11;100392.09;1676695;84;21173;-62
2020/12/12 09:06:57;;;;;;;24.00;10.50;;;;;;;-1.03;71.19;100390.87;1700102;83;21059;-63
2020/12/12 09:09:31;;;;;;;23.38;9.80;;;;;;;-0.99;71.11;100403.58;1716817;83;21059;-62
2020/12/12 09:12:08;;;;;;;24.98;10.90;;;;;;;-1.01;71.04;100400.16;1717262;83;21223;-65
2020/12/12 09:14:43;;;;;;;26.40;10.23;;;;;;;-1.03;71.11;100396.24;1717484;83;21101;-62
2020/12/12 09:17:14;;;;;;;25.80;10.38;;;;;;;-1.01;71.18;100388.91;1703308;83;21444;-61
2020/12/12 09:19:42;;;;;;;25.02;10.23;;;;;;;-1.01;71.28;100388.05;1717305;83;21715;-62
2020/12/12 09:22:10;;;;;;;22.60;10.45;;;;;;;-1.00;71.26;100383.89;1717087;83;21282;-62
2020/12/12 09:24:38;;;;;;;26.07;10.30;;;;;;;-0.97;71.43;100389.02;1717500;83;21095;-62
2020/12/12 09:27:05;;;;;;;25.75;9.63;;;;;;;-0.93;71.58;100378.88;1696806;83;21374;-62
2020/12/12 09:29:33;;;;;;;21.75;9.33;;;;;;;-0.89;71.40;100375.45;1698504;84;21851;-61
2020/12/12 09:32:00;;;;;;;28.32;11.22;;;;;;;-0.90;71.37;100378.63;1699711;83;21070;-61
2020/12/12 09:34:28;;;;;;;29.10;11.00;;;;;;;-0.92;71.34;100373.01;1699866;83;21711;-64
2020/12/12 09:36:55;;;;;;;26.77;11.85;;;;;;;-0.89;71.52;100376.79;1700036;83;21808;-65
2020/12/12 09:39:22;;;;;;;31.55;11.83;;;;;;;-0.84;71.64;100369.20;1722327;82;21096;-61
2020/12/12 09:41:57;;;;;;;29.92;12.40;;;;;;;-0.82;71.59;100372.62;1722593;82;21309;-63
2020/12/12 09:44:29;;;;;;;23.25;10.65;;;;;;;-0.78;71.68;100367.35;1722690;83;21311;-65
2020/12/12 09:46:57;;;;;;;24.65;9.63;;;;;;;-0.74;71.44;100363.42;1722705;82;21113;-64
2020/12/12 09:49:24;;;;;;;31.33;10.78;;;;;;;-0.72;71.29;100354.73;1722590;82;21231;-62
2020/12/12 09:51:52;;;;;;;26.02;10.13;;;;;;;-0.73;71.28;100358.41;1722632;82;21100;-68
2020/12/12 09:54:19;;;;;;;25.88;10.75;;;;;;;-0.73;71.34;100346.30;1722791;82;21825;-65
2020/12/12 09:56:48;;;;;;;26.15;9.63;;;;;;;-0.71;71.36;100343.85;1723614;82;21840;-63
2020/12/12 09:59:19;;;;;;;24.87;11.08;;;;;;;-0.67;71.41;100339.07;1742916;81;21403;-64
2020/12/12 10:01:47;;;;;;;27.10;11.03;;;;;;;-0.65;71.41;100337.99;1742930;81;21230;-64
2020/12/12 10:04:15;;;;;;;20.68;9.10;;;;;;;-0.59;71.43;100334.42;1742987;82;21063;-61
2020/12/12 10:06:43;;;;;;;26.50;11.00;;;;;;;-0.57;71.27;100329.28;1713508;81;21813;-62
2020/12/12 10:09:10;;;;;;;22.00;9.68;;;;;;;-0.60;70.99;100335.41;1687769;82;21081;-61
2020/12/12 10:11:38;;;;;;;21.37;10.28;;;;;;;-0.64;71.11;100338.84;1698877;82;21360;-62
2020/12/12 10:14:06;;;;;;;24.00;8.93;;;;;;;-0.64;71.14;100341.54;1704198;82;21369;-62
2020/12/12 10:16:34;;;;;;;19.95;9.33;;;;;;;-0.64;71.11;100328.09;1710430;84;21208;-61
2020/12/12 10:19:01;;;;;;;23.90;9.53;;;;;;;-0.68;70.99;100332.83;1710551;84;21085;-64
2020/12/12 10:21:29;;;;;;;25.35;11.57;;;;;;;-0.73;70.95;100327.47;1714495;82;21310;-64
2020/12/12 10:23:56;;;;;;;24.00;10.50;;;;;;;-0.76;70.95;100323.70;1722985;82;21251;-65
2020/12/12 10:26:25;;;;;;;21.10;8.58;;;;;;;-0.78;70.95;100323.82;1713431;83;21058;-63
2020/12/12 10:28:52;;;;;;;23.52;10.05;;;;;;;-0.80;70.76;100319.55;1712917;82;21322;-63
2020/12/12 10:31:20;;;;;;;24.10;9.53;;;;;;;-0.87;70.64;100317.86;1716652;82;21220;-64
2020/12/12 10:33:47;;;;;;;26.75;10.95;;;;;;;-0.93;70.58;100322.40;1716083;82;21092;-63
2020/12/12 10:36:16;;;;;;;22.02;9.13;;;;;;;-0.99;70.61;100321.56;1720682;82;21053;-64
2020/12/12 10:38:43;;;;;;;26.75;11.40;;;;;;;-1.00;70.81;100318.02;1722280;82;21382;-63
2020/12/12 10:41:12;;;;;;;23.47;10.88;;;;;;;-1.02;70.87;100314.59;1722813;82;21199;-60
2020/12/12 10:43:39;;;;;;;37.08;10.15;;;;;;;-1.04;71.11;100313.02;1722703;82;21126;-63
2020/12/12 10:46:07;;;;;;;21.40;9.58;;;;;;;-0.98;71.21;100309.34;1722635;82;21073;-65
2020/12/12 10:48:35;;;;;;;22.48;9.68;;;;;;;-0.95;70.91;100313.61;1722713;82;21331;-63
2020/12/12 10:51:02;;;;;;;21.25;9.58;;;;;;;-0.95;70.86;100312.27;1722938;82;21171;-63
2020/12/12 10:53:29;;;;;;;25.88;11.12;;;;;;;-0.95;70.89;100316.30;1724709;82;21121;-63
2020/12/12 10:55:57;;;;;;;25.92;11.35;;;;;;;-0.96;70.66;100315.44;1722885;82;21296;-66
2020/12/12 10:58:24;;;;;;;25.27;10.32;;;;;;;-1.01;70.52;100306.89;1722616;82;21156;-64
2020/12/12 11:00:52;;;;;;;21.35;9.90;;;;;;;-0.99;70.69;100309.46;1722763;83;21725;-66
2020/12/12 11:03:20;;;;;;;19.10;9.43;;;;;;;-0.97;70.63;100307.01;1722692;82;21462;-65
2020/12/12 11:05:47;;;;;;;24.65;10.78;;;;;;;-0.99;70.57;100307.63;1722865;82;21199;-66
2020/12/12 11:08:14;;;;;;;27.52;9.83;;;;;;;-0.99;70.83;100307.63;1722754;82;21096;-63
2020/12/12 11:10:42;;;;;;;22.35;9.93;;;;;;;-0.96;70.95;100302.48;1722628;82;21360;-70
2020/12/12 11:13:09;;;;;;;29.02;10.38;;;;;;;-0.89;70.95;100306.86;1722790;82;21068;-67
2020/12/12 11:15:39;;;;;;;23.77;9.85;;;;;;;-0.88;70.78;100308.09;1722941;82;21116;-68
2020/12/12 11:18:07;;;;;;;25.32;11.48;;;;;;;-0.88;70.64;100304.05;1673909;82;21814;-65
2020/12/12 11:20:34;;;;;;;21.80;9.28;;;;;;;-0.86;70.68;100300.73;1722788;82;21099;-63
2020/12/12 11:23:02;;;;;;;19.65;8.15;;;;;;;-0.85;70.48;100311.86;1722649;82;21315;-66
2020/12/12 11:25:29;;;;;;;22.58;9.05;;;;;;;-0.89;70.48;100305.52;1718576;83;21035;-66